sensor_id;sensor_type;location;lat;lon;timestamp;temperature;humidity
3705;DHT22;1868;48.918;9.438;2022-11-04T00:00:54;11.30;97.40
3705;DHT22;1868;48.918;9.438;2022-11-04T00:03:31;11.20;97.40
3705;DHT22;1868;48.918;9.438;2022-11-04T00:05:59;11.20;97.40
3705;DHT22;1868;48.918;9.438;2022-11-04T00:08:29;11.20;97.40
3705;DHT22;1868;48.918;9.438;2022-11-04T00:10:58;11.20;97.40
3705;DHT22;1868;48.918;9.438;2022-11-04T00:13:45;11.20;97.40
3705;DHT22;1868;48.918;9.438;2022-11-04T00:16:14;11.20;97.40
3705;DHT22;1868;48.918;9.438;2022-11-04T00:19:01;11.20;97.40
3705;DHT22;1868;48.918;9.438;2022-11-04T00:21:29;11.20;97.40
3705;DHT22;1868;48.918;9.438;2022-11-04T00:24:15;11.20;97.40
3705;DHT22;1868;48.918;9.438;2022-11-04T00:27:00;11.20;97.40
3705;DHT22;1868;48.918;9.438;2022-11-04T00:29:46;11.10;97.40
3705;DHT22;1868;48.918;9.438;2022-11-04T00:32:14;11.10;97.40
3705;DHT22;1868;48.918;9.438;2022-11-04T00:35:02;11.10;97.40
3705;DHT22;1868;48.918;9.438;2022-11-04T00:37:30;11.10;97.40
3705;DHT22;1868;48.918;9.438;2022-11-04T00:39:58;11.10;97.40
3705;DHT22;1868;48.918;9.438;2022-11-04T00:42:26;11.00;97.40
3705;DHT22;1868;48.918;9.438;2022-11-04T00:44:55;11.00;97.40
3705;DHT22;1868;48.918;9.438;2022-11-04T00:47:23;11.00;97.40
3705;DHT22;1868;48.918;9.438;2022-11-04T00:49:51;11.00;97.40
3705;DHT22;1868;48.918;9.438;2022-11-04T00:52:21;11.00;97.40
3705;DHT22;1868;48.918;9.438;2022-11-04T00:54:50;11.00;97.40
3705;DHT22;1868;48.918;9.438;2022-11-04T00:57:18;10.90;97.40
3705;DHT22;1868;48.918;9.438;2022-11-04T00:59:46;10.90;97.40
3705;DHT22;1868;48.918;9.438;2022-11-04T01:02:14;10.90;97.40
3705;DHT22;1868;48.918;9.438;2022-11-04T01:04:42;10.90;97.40
3705;DHT22;1868;48.918;9.438;2022-11-04T01:07:10;10.90;97.40
3705;DHT22;1868;48.918;9.438;2022-11-04T01:09:40;10.90;97.40
3705;DHT22;1868;48.918;9.438;2022-11-04T01:12:08;11.00;97.40
3705;DHT22;1868;48.918;9.438;2022-11-04T01:14:36;11.00;97.40
3705;DHT22;1868;48.918;9.438;2022-11-04T01:17:04;10.90;97.40
3705;DHT22;1868;48.918;9.438;2022-11-04T01:19:33;11.00;97.40
3705;DHT22;1868;48.918;9.438;2022-11-04T01:22:01;11.00;97.40
3705;DHT22;1868;48.918;9.438;2022-11-04T01:24:29;11.00;97.40
3705;DHT22;1868;48.918;9.438;2022-11-04T01:26:58;11.00;97.40
3705;DHT22;1868;48.918;9.438;2022-11-04T01:29:26;11.00;97.40
3705;DHT22;1868;48.918;9.438;2022-11-04T01:31:54;11.00;97.40
3705;DHT22;1868;48.918;9.438;2022-11-04T01:34:22;11.00;97.40
3705;DHT22;1868;48.918;9.438;2022-11-04T01:36:51;11.00;97.40
3705;DHT22;1868;48.918;9.438;2022-11-04T01:39:19;11.10;97.40
3705;DHT22;1868;48.918;9.438;2022-11-04T01:41:47;11.10;97.40
3705;DHT22;1868;48.918;9.438;2022-11-04T01:44:51;11.10;97.40
3705;DHT22;1868;48.918;9.438;2022-11-04T01:47:24;11.10;97.40
3705;DHT22;1868;48.918;9.438;2022-11-04T01:49:59;11.10;97.40
3705;DHT22;1868;48.918;9.438;2022-11-04T01:52:34;11.10;97.40
3705;DHT22;1868;48.918;9.438;2022-11-04T01:55:10;11.10;97.40
3705;DHT22;1868;48.918;9.438;2022-11-04T01:57:41;11.10;97.40
3705;DHT22;1868;48.918;9.438;2022-11-04T02:00:15;11.00;97.40
3705;DHT22;1868;48.918;9.438;2022-11-04T02:02:50;11.00;97.40
3705;DHT22;1868;48.918;9.438;2022-11-04T02:05:22;11.00;97.40
3705;DHT22;1868;48.918;9.438;2022-11-04T02:07:53;10.90;97.40
3705;DHT22;1868;48.918;9.438;2022-11-04T02:10:25;10.90;97.40
3705;DHT22;1868;48.918;9.438;2022-11-04T02:12:55;10.90;97.40
3705;DHT22;1868;48.918;9.438;2022-11-04T02:15:34;10.90;97.40
3705;DHT22;1868;48.918;9.438;2022-11-04T02:18:31;10.90;97.40
3705;DHT22;1868;48.918;9.438;2022-11-04T02:24:37;10.80;97.40
3705;DHT22;1868;48.918;9.438;2022-11-04T02:27:34;10.80;97.40
3705;DHT22;1868;48.918;9.438;2022-11-04T02:30:09;10.70;97.40
3705;DHT22;1868;48.918;9.438;2022-11-04T02:32:46;10.70;97.40
3705;DHT22;1868;48.918;9.438;2022-11-04T02:35:24;10.70;97.40
3705;DHT22;1868;48.918;9.438;2022-11-04T02:38:01;10.60;97.40
3705;DHT22;1868;48.918;9.438;2022-11-04T02:40:40;10.60;97.40
3705;DHT22;1868;48.918;9.438;2022-11-04T02:43:17;10.60;97.40
3705;DHT22;1868;48.918;9.438;2022-11-04T02:45:51;10.60;97.40
3705;DHT22;1868;48.918;9.438;2022-11-04T02:48:26;10.60;97.40
3705;DHT22;1868;48.918;9.438;2022-11-04T02:51:03;10.60;97.40
3705;DHT22;1868;48.918;9.438;2022-11-04T02:53:38;10.50;97.40
3705;DHT22;1868;48.918;9.438;2022-11-04T02:56:10;10.50;97.40
3705;DHT22;1868;48.918;9.438;2022-11-04T02:58:42;10.50;97.40
3705;DHT22;1868;48.918;9.438;2022-11-04T03:01:17;10.60;97.40
3705;DHT22;1868;48.918;9.438;2022-11-04T03:03:47;10.60;97.40
3705;DHT22;1868;48.918;9.438;2022-11-04T03:06:19;10.60;97.40
3705;DHT22;1868;48.918;9.438;2022-11-04T03:08:51;10.50;97.40
3705;DHT22;1868;48.918;9.438;2022-11-04T03:11:22;10.60;97.40
3705;DHT22;1868;48.918;9.438;2022-11-04T03:13:54;10.60;97.40
3705;DHT22;1868;48.918;9.438;2022-11-04T03:16:32;10.60;97.40
3705;DHT22;1868;48.918;9.438;2022-11-04T03:19:10;10.60;97.40
3705;DHT22;1868;48.918;9.438;2022-11-04T03:21:43;10.60;97.40
3705;DHT22;1868;48.918;9.438;2022-11-04T03:24:14;10.60;97.40
3705;DHT22;1868;48.918;9.438;2022-11-04T03:26:48;10.60;97.40
3705;DHT22;1868;48.918;9.438;2022-11-04T03:29:25;10.60;97.40
3705;DHT22;1868;48.918;9.438;2022-11-04T03:32:03;10.60;97.40
3705;DHT22;1868;48.918;9.438;2022-11-04T03:34:36;10.60;97.40
3705;DHT22;1868;48.918;9.438;2022-11-04T03:37:04;10.60;97.40
3705;DHT22;1868;48.918;9.438;2022-11-04T03:39:33;10.60;97.40
3705;DHT22;1868;48.918;9.438;2022-11-04T03:42:03;10.60;97.40
3705;DHT22;1868;48.918;9.438;2022-11-04T03:44:47;10.50;97.40
3705;DHT22;1868;48.918;9.438;2022-11-04T03:47:19;10.50;97.40
3705;DHT22;1868;48.918;9.438;2022-11-04T03:49:51;10.50;97.40
3705;DHT22;1868;48.918;9.438;2022-11-04T03:52:21;10.50;97.40
3705;DHT22;1868;48.918;9.438;2022-11-04T03:54:49;10.50;97.40
3705;DHT22;1868;48.918;9.438;2022-11-04T03:57:35;10.40;97.40
3705;DHT22;1868;48.918;9.438;2022-11-04T04:00:10;10.40;97.40
3705;DHT22;1868;48.918;9.438;2022-11-04T04:02:51;10.40;97.40
3705;DHT22;1868;48.918;9.438;2022-11-04T04:05:28;10.40;97.40
3705;DHT22;1868;48.918;9.438;2022-11-04T04:08:11;10.40;97.40
3705;DHT22;1868;48.918;9.438;2022-11-04T04:10:47;10.40;97.40
3705;DHT22;1868;48.918;9.438;2022-11-04T04:13:26;10.40;97.40
3705;DHT22;1868;48.918;9.438;2022-11-04T04:16:03;10.30;97.40
3705;DHT22;1868;48.918;9.438;2022-11-04T04:18:40;10.30;97.40
3705;DHT22;1868;48.918;9.438;2022-11-04T04:21:13;10.30;97.40
3705;DHT22;1868;48.918;9.438;2022-11-04T04:23:45;10.30;97.40
3705;DHT22;1868;48.918;9.438;2022-11-04T04:26:34;10.30;97.40
3705;DHT22;1868;48.918;9.438;2022-11-04T04:29:21;10.20;97.40
3705;DHT22;1868;48.918;9.438;2022-11-04T04:31:52;10.20;97.40
3705;DHT22;1868;48.918;9.438;2022-11-04T04:34:26;10.20;97.40
3705;DHT22;1868;48.918;9.438;2022-11-04T04:36:59;10.10;97.40
3705;DHT22;1868;48.918;9.438;2022-11-04T04:39:38;10.10;97.40
3705;DHT22;1868;48.918;9.438;2022-11-04T04:42:30;10.10;97.40
3705;DHT22;1868;48.918;9.438;2022-11-04T04:45:20;10.00;97.40
3705;DHT22;1868;48.918;9.438;2022-11-04T04:47:50;10.00;97.40
3705;DHT22;1868;48.918;9.438;2022-11-04T04:50:21;10.00;97.40
3705;DHT22;1868;48.918;9.438;2022-11-04T04:52:51;10.00;97.40
3705;DHT22;1868;48.918;9.438;2022-11-04T04:55:20;9.90;97.40
3705;DHT22;1868;48.918;9.438;2022-11-04T04:57:49;9.90;97.40
3705;DHT22;1868;48.918;9.438;2022-11-04T05:00:19;9.80;97.40
3705;DHT22;1868;48.918;9.438;2022-11-04T05:02:47;9.80;97.40
3705;DHT22;1868;48.918;9.438;2022-11-04T05:05:17;9.80;97.40
3705;DHT22;1868;48.918;9.438;2022-11-04T05:07:47;9.70;97.40
3705;DHT22;1868;48.918;9.438;2022-11-04T05:10:16;9.70;97.40
3705;DHT22;1868;48.918;9.438;2022-11-04T05:12:45;9.70;97.40
3705;DHT22;1868;48.918;9.438;2022-11-04T05:15:31;9.60;97.40
3705;DHT22;1868;48.918;9.438;2022-11-04T05:18:01;9.60;97.40
3705;DHT22;1868;48.918;9.438;2022-11-04T05:20:30;9.50;97.40
3705;DHT22;1868;48.918;9.438;2022-11-04T05:23:01;9.50;97.40
3705;DHT22;1868;48.918;9.438;2022-11-04T05:25:29;9.40;97.40
3705;DHT22;1868;48.918;9.438;2022-11-04T05:27:59;9.40;97.40
3705;DHT22;1868;48.918;9.438;2022-11-04T05:30:28;9.40;97.40
3705;DHT22;1868;48.918;9.438;2022-11-04T05:32:56;9.40;97.40
3705;DHT22;1868;48.918;9.438;2022-11-04T05:35:31;9.30;97.40
3705;DHT22;1868;48.918;9.438;2022-11-04T05:38:00;9.30;97.40
3705;DHT22;1868;48.918;9.438;2022-11-04T05:40:29;9.30;97.40
3705;DHT22;1868;48.918;9.438;2022-11-04T05:42:57;9.30;97.40
3705;DHT22;1868;48.918;9.438;2022-11-04T05:45:26;9.20;97.40
3705;DHT22;1868;48.918;9.438;2022-11-04T05:47:59;9.20;97.40
3705;DHT22;1868;48.918;9.438;2022-11-04T05:50:29;9.10;97.40
3705;DHT22;1868;48.918;9.438;2022-11-04T05:52:58;9.10;97.40
3705;DHT22;1868;48.918;9.438;2022-11-04T05:55:28;9.00;97.40
3705;DHT22;1868;48.918;9.438;2022-11-04T05:57:56;8.90;97.40
3705;DHT22;1868;48.918;9.438;2022-11-04T06:00:25;8.80;97.40
3705;DHT22;1868;48.918;9.438;2022-11-04T06:02:54;8.80;97.40
3705;DHT22;1868;48.918;9.438;2022-11-04T06:05:23;8.80;97.40
3705;DHT22;1868;48.918;9.438;2022-11-04T06:07:51;8.80;97.40
3705;DHT22;1868;48.918;9.438;2022-11-04T06:10:21;8.80;97.40
3705;DHT22;1868;48.918;9.438;2022-11-04T06:12:50;8.80;97.40
3705;DHT22;1868;48.918;9.438;2022-11-04T06:15:18;8.80;97.40
3705;DHT22;1868;48.918;9.438;2022-11-04T06:17:46;8.70;97.40
3705;DHT22;1868;48.918;9.438;2022-11-04T06:20:14;8.70;97.40
3705;DHT22;1868;48.918;9.438;2022-11-04T06:22:42;8.70;97.40
3705;DHT22;1868;48.918;9.438;2022-11-04T06:25:11;8.60;97.40
3705;DHT22;1868;48.918;9.438;2022-11-04T06:27:40;8.60;97.40
3705;DHT22;1868;48.918;9.438;2022-11-04T06:30:10;8.60;97.40
3705;DHT22;1868;48.918;9.438;2022-11-04T06:32:39;8.60;97.40
3705;DHT22;1868;48.918;9.438;2022-11-04T06:35:07;8.50;97.40
3705;DHT22;1868;48.918;9.438;2022-11-04T06:37:35;8.50;97.40
3705;DHT22;1868;48.918;9.438;2022-11-04T06:40:05;8.50;97.40
3705;DHT22;1868;48.918;9.438;2022-11-04T06:42:34;8.50;97.40
3705;DHT22;1868;48.918;9.438;2022-11-04T06:45:05;8.50;97.40
3705;DHT22;1868;48.918;9.438;2022-11-04T06:47:34;8.50;97.40
3705;DHT22;1868;48.918;9.438;2022-11-04T06:50:02;8.50;97.40
3705;DHT22;1868;48.918;9.438;2022-11-04T06:52:31;8.50;97.40
3705;DHT22;1868;48.918;9.438;2022-11-04T06:55:08;8.50;97.40
3705;DHT22;1868;48.918;9.438;2022-11-04T06:57:36;8.50;97.40
3705;DHT22;1868;48.918;9.438;2022-11-04T07:00:07;8.50;97.40
3705;DHT22;1868;48.918;9.438;2022-11-04T07:02:36;8.50;97.40
3705;DHT22;1868;48.918;9.438;2022-11-04T07:05:05;8.50;97.40
3705;DHT22;1868;48.918;9.438;2022-11-04T07:07:34;8.50;97.40
3705;DHT22;1868;48.918;9.438;2022-11-04T07:10:03;8.60;97.40
3705;DHT22;1868;48.918;9.438;2022-11-04T07:12:31;8.60;97.40
3705;DHT22;1868;48.918;9.438;2022-11-04T07:15:00;8.70;97.40
3705;DHT22;1868;48.918;9.438;2022-11-04T07:17:29;8.70;97.40
3705;DHT22;1868;48.918;9.438;2022-11-04T07:19:57;8.80;97.40
3705;DHT22;1868;48.918;9.438;2022-11-04T07:22:25;8.80;97.40
3705;DHT22;1868;48.918;9.438;2022-11-04T07:24:54;8.80;97.40
3705;DHT22;1868;48.918;9.438;2022-11-04T07:27:22;8.90;97.40
3705;DHT22;1868;48.918;9.438;2022-11-04T07:29:50;8.80;97.40
3705;DHT22;1868;48.918;9.438;2022-11-04T07:32:18;8.80;97.40
3705;DHT22;1868;48.918;9.438;2022-11-04T07:34:48;8.90;97.40
3705;DHT22;1868;48.918;9.438;2022-11-04T07:37:16;9.00;97.40
3705;DHT22;1868;48.918;9.438;2022-11-04T07:39:45;9.00;97.40
3705;DHT22;1868;48.918;9.438;2022-11-04T07:42:13;9.10;97.40
3705;DHT22;1868;48.918;9.438;2022-11-04T07:44:41;9.10;97.40
3705;DHT22;1868;48.918;9.438;2022-11-04T07:47:09;9.10;97.40
3705;DHT22;1868;48.918;9.438;2022-11-04T07:49:37;9.20;97.40
3705;DHT22;1868;48.918;9.438;2022-11-04T07:52:07;9.20;97.40
3705;DHT22;1868;48.918;9.438;2022-11-04T07:54:35;9.20;97.40
3705;DHT22;1868;48.918;9.438;2022-11-04T07:57:03;9.30;97.40
3705;DHT22;1868;48.918;9.438;2022-11-04T07:59:31;9.30;97.40
3705;DHT22;1868;48.918;9.438;2022-11-04T08:02:00;9.40;97.40
3705;DHT22;1868;48.918;9.438;2022-11-04T08:04:28;9.40;97.40
3705;DHT22;1868;48.918;9.438;2022-11-04T08:06:56;9.50;97.40
3705;DHT22;1868;48.918;9.438;2022-11-04T08:09:26;9.50;97.40
3705;DHT22;1868;48.918;9.438;2022-11-04T08:11:54;9.60;97.40
3705;DHT22;1868;48.918;9.438;2022-11-04T08:14:22;9.60;97.40
3705;DHT22;1868;48.918;9.438;2022-11-04T08:16:50;9.70;97.40
3705;DHT22;1868;48.918;9.438;2022-11-04T08:19:19;9.70;97.40
3705;DHT22;1868;48.918;9.438;2022-11-04T08:21:47;9.80;97.40
3705;DHT22;1868;48.918;9.438;2022-11-04T08:24:16;9.90;97.40
3705;DHT22;1868;48.918;9.438;2022-11-04T08:26:45;10.00;97.40
3705;DHT22;1868;48.918;9.438;2022-11-04T08:29:13;10.20;97.40
3705;DHT22;1868;48.918;9.438;2022-11-04T08:31:41;10.30;97.40
3705;DHT22;1868;48.918;9.438;2022-11-04T08:34:10;10.40;97.40
3705;DHT22;1868;48.918;9.438;2022-11-04T08:36:40;10.50;97.40
3705;DHT22;1868;48.918;9.438;2022-11-04T08:39:08;10.60;97.40
3705;DHT22;1868;48.918;9.438;2022-11-04T08:41:39;10.80;97.40
3705;DHT22;1868;48.918;9.438;2022-11-04T08:44:11;10.90;97.40
3705;DHT22;1868;48.918;9.438;2022-11-04T08:46:41;11.00;97.40
3705;DHT22;1868;48.918;9.438;2022-11-04T08:49:11;11.10;97.40
3705;DHT22;1868;48.918;9.438;2022-11-04T08:51:46;11.20;97.40
3705;DHT22;1868;48.918;9.438;2022-11-04T08:54:21;11.30;97.40
3705;DHT22;1868;48.918;9.438;2022-11-04T08:56:50;11.40;97.40
3705;DHT22;1868;48.918;9.438;2022-11-04T08:59:19;11.50;97.40
3705;DHT22;1868;48.918;9.438;2022-11-04T09:01:47;11.60;97.40
3705;DHT22;1868;48.918;9.438;2022-11-04T09:04:18;11.60;97.40
3705;DHT22;1868;48.918;9.438;2022-11-04T09:06:46;11.70;97.40
3705;DHT22;1868;48.918;9.438;2022-11-04T09:09:16;11.70;97.40
3705;DHT22;1868;48.918;9.438;2022-11-04T09:11:46;11.80;97.40
3705;DHT22;1868;48.918;9.438;2022-11-04T09:14:14;12.00;97.40
3705;DHT22;1868;48.918;9.438;2022-11-04T09:16:45;12.00;97.40
3705;DHT22;1868;48.918;9.438;2022-11-04T09:19:13;12.10;97.40
3705;DHT22;1868;48.918;9.438;2022-11-04T09:21:42;12.30;97.40
3705;DHT22;1868;48.918;9.438;2022-11-04T09:24:10;12.40;97.40
3705;DHT22;1868;48.918;9.438;2022-11-04T09:26:39;12.60;97.40
3705;DHT22;1868;48.918;9.438;2022-11-04T09:29:07;12.70;97.40
3705;DHT22;1868;48.918;9.438;2022-11-04T09:31:36;12.70;97.40
3705;DHT22;1868;48.918;9.438;2022-11-04T09:34:06;12.80;97.40
3705;DHT22;1868;48.918;9.438;2022-11-04T09:36:34;12.60;97.40
3705;DHT22;1868;48.918;9.438;2022-11-04T09:39:02;12.60;97.40
3705;DHT22;1868;48.918;9.438;2022-11-04T09:42:00;12.70;97.40
3705;DHT22;1868;48.918;9.438;2022-11-04T09:44:47;12.70;97.40
3705;DHT22;1868;48.918;9.438;2022-11-04T09:47:38;12.70;97.40
3705;DHT22;1868;48.918;9.438;2022-11-04T09:50:16;12.70;97.40
3705;DHT22;1868;48.918;9.438;2022-11-04T09:52:50;12.80;97.40
3705;DHT22;1868;48.918;9.438;2022-11-04T09:55:25;12.90;97.40
3705;DHT22;1868;48.918;9.438;2022-11-04T09:57:57;12.90;97.40
3705;DHT22;1868;48.918;9.438;2022-11-04T10:00:29;13.00;97.40
3705;DHT22;1868;48.918;9.438;2022-11-04T10:03:10;13.10;97.40
3705;DHT22;1868;48.918;9.438;2022-11-04T10:05:55;13.20;97.40
3705;DHT22;1868;48.918;9.438;2022-11-04T10:08:47;13.50;97.40
3705;DHT22;1868;48.918;9.438;2022-11-04T10:11:29;13.90;97.40
3705;DHT22;1868;48.918;9.438;2022-11-04T10:14:12;13.90;97.40
3705;DHT22;1868;48.918;9.438;2022-11-04T10:16:59;14.00;97.40
3705;DHT22;1868;48.918;9.438;2022-11-04T10:19:43;14.30;97.40
3705;DHT22;1868;48.918;9.438;2022-11-04T10:22:27;14.50;97.40
3705;DHT22;1868;48.918;9.438;2022-11-04T10:25:06;14.70;97.40
3705;DHT22;1868;48.918;9.438;2022-11-04T10:27:38;14.80;97.40
3705;DHT22;1868;48.918;9.438;2022-11-04T10:30:15;15.00;97.40
3705;DHT22;1868;48.918;9.438;2022-11-04T10:32:53;15.10;97.40
3705;DHT22;1868;48.918;9.438;2022-11-04T10:35:30;15.20;97.40
3705;DHT22;1868;48.918;9.438;2022-11-04T10:38:15;15.50;97.40
3705;DHT22;1868;48.918;9.438;2022-11-04T10:40:48;15.70;97.40
3705;DHT22;1868;48.918;9.438;2022-11-04T10:43:24;15.80;97.40
3705;DHT22;1868;48.918;9.438;2022-11-04T10:46:23;15.30;96.30
3705;DHT22;1868;48.918;9.438;2022-11-04T10:49:18;15.10;97.30
3705;DHT22;1868;48.918;9.438;2022-11-04T10:52:06;15.20;97.40
3705;DHT22;1868;48.918;9.438;2022-11-04T10:54:39;15.50;97.40
3705;DHT22;1868;48.918;9.438;2022-11-04T10:57:10;15.80;97.40
3705;DHT22;1868;48.918;9.438;2022-11-04T10:59:48;16.10;95.20
3705;DHT22;1868;48.918;9.438;2022-11-04T11:02:43;16.40;95.10
3705;DHT22;1868;48.918;9.438;2022-11-04T11:05:23;16.70;93.00
3705;DHT22;1868;48.918;9.438;2022-11-04T11:07:53;16.70;92.20
3705;DHT22;1868;48.918;9.438;2022-11-04T11:10:25;17.00;91.60
3705;DHT22;1868;48.918;9.438;2022-11-04T11:12:56;17.70;91.30
3705;DHT22;1868;48.918;9.438;2022-11-04T11:15:30;18.30;89.20
3705;DHT22;1868;48.918;9.438;2022-11-04T11:18:15;18.70;85.10
3705;DHT22;1868;48.918;9.438;2022-11-04T11:20:48;18.80;84.50
3705;DHT22;1868;48.918;9.438;2022-11-04T11:26:29;18.90;81.20
3705;DHT22;1868;48.918;9.438;2022-11-04T11:28:58;18.60;83.40
3705;DHT22;1868;48.918;9.438;2022-11-04T11:31:34;18.50;84.50
3705;DHT22;1868;48.918;9.438;2022-11-04T11:34:04;18.30;87.90
3705;DHT22;1868;48.918;9.438;2022-11-04T11:36:36;18.10;85.10
3705;DHT22;1868;48.918;9.438;2022-11-04T11:39:13;17.90;85.10
3705;DHT22;1868;48.918;9.438;2022-11-04T11:41:57;17.90;86.00
3705;DHT22;1868;48.918;9.438;2022-11-04T11:44:28;17.80;87.30
3705;DHT22;1868;48.918;9.438;2022-11-04T11:47:00;17.60;86.40
3705;DHT22;1868;48.918;9.438;2022-11-04T11:49:31;17.40;86.40
3705;DHT22;1868;48.918;9.438;2022-11-04T11:52:24;17.20;88.20
3705;DHT22;1868;48.918;9.438;2022-11-04T11:55:02;17.00;90.50
3705;DHT22;1868;48.918;9.438;2022-11-04T11:57:41;16.80;91.00
3705;DHT22;1868;48.918;9.438;2022-11-04T12:00:38;16.50;91.90
3705;DHT22;1868;48.918;9.438;2022-11-04T12:03:18;16.40;91.70
3705;DHT22;1868;48.918;9.438;2022-11-04T12:06:03;16.00;91.70
3705;DHT22;1868;48.918;9.438;2022-11-04T12:09:11;16.00;93.40
3705;DHT22;1868;48.918;9.438;2022-11-04T12:11:59;16.00;93.10
3705;DHT22;1868;48.918;9.438;2022-11-04T12:14:44;16.20;92.50
3705;DHT22;1868;48.918;9.438;2022-11-04T12:17:28;16.00;91.90
3705;DHT22;1868;48.918;9.438;2022-11-04T12:20:20;15.90;93.10
3705;DHT22;1868;48.918;9.438;2022-11-04T12:22:58;16.10;93.50
3705;DHT22;1868;48.918;9.438;2022-11-04T12:25:40;16.00;92.20
3705;DHT22;1868;48.918;9.438;2022-11-04T12:28:20;16.20;92.20
3705;DHT22;1868;48.918;9.438;2022-11-04T12:31:04;16.40;92.90
3705;DHT22;1868;48.918;9.438;2022-11-04T12:33:43;16.20;91.90
3705;DHT22;1868;48.918;9.438;2022-11-04T12:36:26;16.30;92.70
3705;DHT22;1868;48.918;9.438;2022-11-04T12:39:18;16.30;92.50
3705;DHT22;1868;48.918;9.438;2022-11-04T12:42:04;16.20;92.80
3705;DHT22;1868;48.918;9.438;2022-11-04T12:44:54;16.00;92.80
3705;DHT22;1868;48.918;9.438;2022-11-04T12:47:35;15.70;92.30
3705;DHT22;1868;48.918;9.438;2022-11-04T12:50:29;15.50;93.40
3705;DHT22;1868;48.918;9.438;2022-11-04T12:53:18;15.00;94.60
3705;DHT22;1868;48.918;9.438;2022-11-04T12:55:59;15.10;95.20
3705;DHT22;1868;48.918;9.438;2022-11-04T12:58:43;15.20;95.30
3705;DHT22;1868;48.918;9.438;2022-11-04T13:01:26;15.10;94.80
3705;DHT22;1868;48.918;9.438;2022-11-04T13:04:03;15.00;95.80
3705;DHT22;1868;48.918;9.438;2022-11-04T13:06:38;15.00;96.30
3705;DHT22;1868;48.918;9.438;2022-11-04T13:09:11;14.80;95.70
3705;DHT22;1868;48.918;9.438;2022-11-04T13:11:47;14.70;96.60
3705;DHT22;1868;48.918;9.438;2022-11-04T13:14:23;14.60;96.40
3705;DHT22;1868;48.918;9.438;2022-11-04T13:16:57;14.50;97.40
3705;DHT22;1868;48.918;9.438;2022-11-04T13:19:32;14.50;97.40
3705;DHT22;1868;48.918;9.438;2022-11-04T13:22:07;14.30;97.10
3705;DHT22;1868;48.918;9.438;2022-11-04T13:24:40;14.20;97.10
3705;DHT22;1868;48.918;9.438;2022-11-04T13:27:18;14.20;97.40
3705;DHT22;1868;48.918;9.438;2022-11-04T13:29:50;14.30;97.40
3705;DHT22;1868;48.918;9.438;2022-11-04T13:32:39;14.30;96.80
3705;DHT22;1868;48.918;9.438;2022-11-04T13:35:18;14.20;97.40
3705;DHT22;1868;48.918;9.438;2022-11-04T13:37:56;14.40;97.40
3705;DHT22;1868;48.918;9.438;2022-11-04T13:40:28;14.40;97.40
3705;DHT22;1868;48.918;9.438;2022-11-04T13:43:24;14.60;97.40
3705;DHT22;1868;48.918;9.438;2022-11-04T13:46:19;14.60;97.40
3705;DHT22;1868;48.918;9.438;2022-11-04T13:48:57;14.60;97.40
3705;DHT22;1868;48.918;9.438;2022-11-04T13:51:38;14.40;97.40
3705;DHT22;1868;48.918;9.438;2022-11-04T13:54:24;14.40;97.40
3705;DHT22;1868;48.918;9.438;2022-11-04T13:57:09;14.50;97.40
3705;DHT22;1868;48.918;9.438;2022-11-04T13:59:40;14.50;97.40
3705;DHT22;1868;48.918;9.438;2022-11-04T14:02:37;14.60;97.40
3705;DHT22;1868;48.918;9.438;2022-11-04T14:05:44;14.60;97.40
3705;DHT22;1868;48.918;9.438;2022-11-04T14:08:16;14.70;97.40
3705;DHT22;1868;48.918;9.438;2022-11-04T14:11:05;14.70;97.40
3705;DHT22;1868;48.918;9.438;2022-11-04T14:14:02;14.60;97.40
3705;DHT22;1868;48.918;9.438;2022-11-04T14:16:43;14.50;97.40
3705;DHT22;1868;48.918;9.438;2022-11-04T14:22:30;14.30;97.20
3705;DHT22;1868;48.918;9.438;2022-11-04T14:25:17;14.30;97.40
3705;DHT22;1868;48.918;9.438;2022-11-04T14:27:48;14.20;97.40
3705;DHT22;1868;48.918;9.438;2022-11-04T14:30:40;14.10;97.40
3705;DHT22;1868;48.918;9.438;2022-11-04T14:33:25;14.10;97.40
3705;DHT22;1868;48.918;9.438;2022-11-04T14:36:24;14.10;97.40
3705;DHT22;1868;48.918;9.438;2022-11-04T14:38:56;14.00;97.40
3705;DHT22;1868;48.918;9.438;2022-11-04T14:41:49;14.00;97.40
3705;DHT22;1868;48.918;9.438;2022-11-04T14:44:30;13.90;97.40
3705;DHT22;1868;48.918;9.438;2022-11-04T14:47:05;13.90;97.40
3705;DHT22;1868;48.918;9.438;2022-11-04T14:49:44;13.90;97.40
3705;DHT22;1868;48.918;9.438;2022-11-04T14:52:23;13.80;97.40
3705;DHT22;1868;48.918;9.438;2022-11-04T14:54:56;13.70;97.40
3705;DHT22;1868;48.918;9.438;2022-11-04T14:57:36;13.60;97.40
3705;DHT22;1868;48.918;9.438;2022-11-04T15:00:21;13.60;97.40
3705;DHT22;1868;48.918;9.438;2022-11-04T15:03:11;13.60;97.40
3705;DHT22;1868;48.918;9.438;2022-11-04T15:06:03;13.60;97.40
3705;DHT22;1868;48.918;9.438;2022-11-04T15:08:35;13.50;97.40
3705;DHT22;1868;48.918;9.438;2022-11-04T15:11:09;13.40;97.40
3705;DHT22;1868;48.918;9.438;2022-11-04T15:13:46;13.40;97.40
3705;DHT22;1868;48.918;9.438;2022-11-04T15:16:18;13.40;97.40
3705;DHT22;1868;48.918;9.438;2022-11-04T15:18:47;13.30;97.40
3705;DHT22;1868;48.918;9.438;2022-11-04T15:21:17;13.20;97.40
3705;DHT22;1868;48.918;9.438;2022-11-04T15:23:46;13.20;97.40
3705;DHT22;1868;48.918;9.438;2022-11-04T15:26:20;13.20;97.40
3705;DHT22;1868;48.918;9.438;2022-11-04T15:28:59;13.30;97.40
3705;DHT22;1868;48.918;9.438;2022-11-04T15:31:30;13.30;97.40
3705;DHT22;1868;48.918;9.438;2022-11-04T15:34:00;13.30;97.40
3705;DHT22;1868;48.918;9.438;2022-11-04T15:36:31;13.20;97.40
3705;DHT22;1868;48.918;9.438;2022-11-04T15:39:06;13.20;97.40
3705;DHT22;1868;48.918;9.438;2022-11-04T15:41:37;13.10;97.40
3705;DHT22;1868;48.918;9.438;2022-11-04T15:44:26;13.10;97.40
3705;DHT22;1868;48.918;9.438;2022-11-04T15:46:56;13.10;97.40
3705;DHT22;1868;48.918;9.438;2022-11-04T15:49:26;13.00;97.40
3705;DHT22;1868;48.918;9.438;2022-11-04T15:51:58;12.90;97.40
3705;DHT22;1868;48.918;9.438;2022-11-04T15:54:29;12.90;97.40
3705;DHT22;1868;48.918;9.438;2022-11-04T15:57:03;12.80;97.40
3705;DHT22;1868;48.918;9.438;2022-11-04T15:59:44;12.70;97.40
3705;DHT22;1868;48.918;9.438;2022-11-04T16:02:21;12.60;97.40
3705;DHT22;1868;48.918;9.438;2022-11-04T16:05:06;12.50;97.40
3705;DHT22;1868;48.918;9.438;2022-11-04T16:07:50;12.40;97.40
3705;DHT22;1868;48.918;9.438;2022-11-04T16:10:24;12.30;97.40
3705;DHT22;1868;48.918;9.438;2022-11-04T16:12:57;12.20;97.40
3705;DHT22;1868;48.918;9.438;2022-11-04T16:15:34;12.10;97.40
3705;DHT22;1868;48.918;9.438;2022-11-04T16:18:05;12.00;97.40
3705;DHT22;1868;48.918;9.438;2022-11-04T16:20:44;11.90;97.40
3705;DHT22;1868;48.918;9.438;2022-11-04T16:23:16;11.80;97.40
3705;DHT22;1868;48.918;9.438;2022-11-04T16:25:46;11.70;97.40
3705;DHT22;1868;48.918;9.438;2022-11-04T16:28:23;11.70;97.40
3705;DHT22;1868;48.918;9.438;2022-11-04T16:30:56;11.60;97.40
3705;DHT22;1868;48.918;9.438;2022-11-04T16:33:25;11.50;97.40
3705;DHT22;1868;48.918;9.438;2022-11-04T16:35:54;11.40;97.40
3705;DHT22;1868;48.918;9.438;2022-11-04T16:38:22;11.30;97.40
3705;DHT22;1868;48.918;9.438;2022-11-04T16:40:50;11.30;97.40
3705;DHT22;1868;48.918;9.438;2022-11-04T16:43:20;11.20;97.40
3705;DHT22;1868;48.918;9.438;2022-11-04T16:45:48;11.20;97.40
3705;DHT22;1868;48.918;9.438;2022-11-04T16:48:21;11.10;97.40
3705;DHT22;1868;48.918;9.438;2022-11-04T16:50:50;11.10;97.40
3705;DHT22;1868;48.918;9.438;2022-11-04T16:53:18;11.00;97.40
3705;DHT22;1868;48.918;9.438;2022-11-04T16:55:47;10.90;97.40
3705;DHT22;1868;48.918;9.438;2022-11-04T16:58:17;10.90;97.40
3705;DHT22;1868;48.918;9.438;2022-11-04T17:00:45;10.80;97.40
3705;DHT22;1868;48.918;9.438;2022-11-04T17:03:16;10.70;97.40